createdAt,value
2019-01-25T00:03:52.165Z,18.70
2019-01-25T00:08:55.630Z,17.10
2019-01-25T00:13:58.941Z,17.97
2019-01-25T00:19:08.298Z,19.10
2019-01-25T00:24:12.995Z,16.80
2019-01-25T00:29:16.446Z,18.63
2019-01-25T00:34:19.843Z,18.17
2019-01-25T00:39:23.374Z,17.93
2019-01-25T00:44:29.756Z,18.10
2019-01-25T00:49:33.139Z,18.17
2019-01-25T00:54:36.582Z,17.83
2019-01-25T00:59:39.995Z,18.80
2019-01-25T01:04:43.461Z,17.90
2019-01-25T01:09:46.946Z,18.60
2019-01-25T01:14:49.917Z,16.70
2019-01-25T01:19:54.725Z,17.27
2019-01-25T01:25:01.269Z,17.67
2019-01-25T01:30:06.045Z,16.63
2019-01-25T01:35:09.033Z,16.00
2019-01-25T01:40:21.511Z,17.80
2019-01-25T01:45:20.548Z,17.43
2019-01-25T01:50:24.143Z,18.87
2019-01-25T01:55:28.344Z,15.93
2019-01-25T02:00:32.955Z,16.60
2019-01-25T02:05:36.312Z,16.50
2019-01-25T02:10:39.650Z,18.13
2019-01-25T02:15:43.038Z,17.73
2019-01-25T02:20:46.455Z,17.70
2019-01-25T02:25:49.992Z,16.90
2019-01-25T02:30:53.454Z,16.50
2019-01-25T02:35:56.371Z,17.47
2019-01-25T02:40:59.929Z,16.23
2019-01-25T02:46:03.548Z,16.00
2019-01-25T02:51:07.061Z,15.70
2019-01-25T02:56:10.589Z,16.83
2019-01-25T03:01:13.970Z,16.83
2019-01-25T03:06:17.502Z,15.70
2019-01-25T03:11:21.115Z,16.53
2019-01-25T03:16:24.499Z,15.43
2019-01-25T03:21:27.910Z,16.73
2019-01-25T03:26:31.325Z,16.87
2019-01-25T03:31:34.745Z,16.67
2019-01-25T03:36:38.081Z,17.80
2019-01-25T03:41:41.463Z,15.53
2019-01-25T03:46:45.005Z,16.00
2019-01-25T03:51:54.462Z,16.37
2019-01-25T03:56:57.949Z,16.77
2019-01-25T04:02:04.227Z,16.73
2019-01-25T04:07:07.671Z,17.60
2019-01-25T04:12:11.123Z,19.00
2019-01-25T04:17:17.555Z,19.80
2019-01-25T04:22:20.869Z,18.20
2019-01-25T04:27:24.166Z,19.70
2019-01-25T04:32:27.552Z,19.37
2019-01-25T04:37:31.120Z,18.80
2019-01-25T04:42:34.417Z,19.73
2019-01-25T04:47:43.930Z,20.50
2019-01-25T04:52:47.498Z,19.80
2019-01-25T04:57:50.905Z,20.47
2019-01-25T05:02:58.363Z,19.40
2019-01-25T05:08:20.854Z,20.00
2019-01-25T05:13:25.520Z,19.47
2019-01-25T05:18:28.823Z,20.40
2019-01-25T05:23:35.103Z,20.17
2019-01-25T05:28:44.445Z,19.67
2019-01-25T05:33:59.167Z,20.77
2019-01-25T05:39:03.297Z,20.00
2019-01-25T05:44:06.536Z,21.20
2019-01-25T05:49:10.088Z,19.60
2019-01-25T05:54:19.474Z,21.03
2019-01-25T05:59:23.907Z,20.80
2019-01-25T06:04:34.657Z,20.67
2019-01-25T06:09:38.020Z,19.57
2019-01-25T06:14:41.340Z,20.27
2019-01-25T06:19:46.064Z,19.93
2019-01-25T06:24:52.613Z,20.93
2019-01-25T06:29:56.161Z,22.80
2019-01-25T06:34:59.635Z,19.30
2019-01-25T06:40:03.038Z,21.03
2019-01-25T06:45:06.440Z,20.60
2019-01-25T06:50:09.625Z,20.63
2019-01-25T06:55:13.094Z,19.90
2019-01-25T07:00:22.088Z,21.83
2019-01-25T07:05:28.179Z,21.10
2019-01-25T07:10:31.636Z,21.17
2019-01-25T07:15:34.953Z,20.40
2019-01-25T07:20:38.199Z,20.73
2019-01-25T07:25:44.867Z,22.07
2019-01-25T07:30:48.449Z,19.87
2019-01-25T07:36:07.271Z,20.67
2019-01-25T07:41:10.740Z,23.23
2019-01-25T07:46:20.297Z,20.97
2019-01-25T07:51:23.819Z,22.00
2019-01-25T07:56:27.240Z,21.87
2019-01-25T08:01:30.839Z,20.33
2019-01-25T08:06:40.461Z,20.57
2019-01-25T08:11:44.020Z,20.70
2019-01-25T08:16:53.306Z,19.90
2019-01-25T08:21:59.901Z,19.70
2019-01-25T08:27:06.307Z,22.10
2019-01-25T08:32:09.623Z,19.90
2019-01-25T08:37:13.006Z,18.80
2019-01-25T08:42:16.305Z,19.67
2019-01-25T08:47:22.804Z,19.00
2019-01-25T08:52:29.286Z,17.70
2019-01-25T08:57:32.706Z,18.77
2019-01-25T09:02:38.788Z,18.20
2019-01-25T09:07:42.273Z,20.80
2019-01-25T09:12:45.988Z,19.27
2019-01-25T09:17:52.144Z,20.00
2019-01-25T09:22:56.060Z,21.77
2019-01-25T09:27:59.577Z,19.63
2019-01-25T09:33:03.196Z,19.50
2019-01-25T09:38:06.813Z,17.93
2019-01-25T09:43:10.326Z,17.93
2019-01-25T09:48:25.926Z,17.93
2019-01-25T09:53:29.441Z,16.30
2019-01-25T09:58:33.264Z,16.10
2019-01-25T10:03:42.557Z,15.87
2019-01-25T10:08:50.129Z,18.00
2019-01-25T10:13:51.410Z,16.37
2019-01-25T10:19:12.823Z,17.20
2019-01-25T10:24:16.857Z,17.87
2019-01-25T10:29:20.399Z,17.07
2019-01-25T10:34:31.048Z,16.97
2019-01-25T10:39:34.307Z,17.93
2019-01-25T10:44:43.758Z,16.47
2019-01-25T10:50:01.052Z,15.80
2019-01-25T10:55:05.011Z,22.70
2019-01-25T11:00:10.822Z,23.43
2019-01-25T11:05:18.754Z,22.47
2019-01-25T11:10:26.331Z,22.03
2019-01-25T11:15:35.621Z,22.07
2019-01-25T11:20:39.136Z,21.73
2019-01-25T11:25:45.417Z,21.80
2019-01-25T11:30:48.933Z,21.10
2019-01-25T11:35:52.284Z,19.60
2019-01-25T11:40:55.686Z,22.83
2019-01-25T11:45:58.993Z,22.70
2019-01-25T11:51:02.297Z,21.23
2019-01-25T11:56:05.619Z,22.70
2019-01-25T12:01:11.183Z,23.60
2019-01-25T12:06:14.602Z,23.40
2019-01-25T12:11:17.907Z,22.87
2019-01-25T12:16:21.215Z,20.43
2019-01-25T12:21:24.437Z,21.03
2019-01-25T12:26:31.078Z,20.77
2019-01-25T12:31:37.563Z,21.37
2019-01-25T12:36:44.942Z,20.00
2019-01-25T12:41:48.485Z,21.47
2019-01-25T12:46:52.124Z,20.30
2019-01-25T12:52:08.295Z,21.40
2019-01-25T12:57:12.543Z,22.47
2019-01-25T13:02:16.677Z,20.13
2019-01-25T13:07:20.093Z,20.57
2019-01-25T13:12:26.605Z,22.60
2019-01-25T13:17:29.836Z,21.63
2019-01-25T13:22:33.254Z,22.83
2019-01-25T13:27:36.551Z,22.67
2019-01-25T13:32:41.305Z,24.03
2019-01-25T13:37:47.382Z,23.87
2019-01-25T13:42:50.801Z,26.97
2019-01-25T13:47:54.134Z,25.30
2019-01-25T13:52:57.562Z,24.63
2019-01-25T13:58:01.079Z,26.30
2019-01-25T14:03:07.870Z,25.27
2019-01-25T14:08:11.207Z,25.97
2019-01-25T14:13:14.618Z,27.90
2019-01-25T14:18:30.034Z,26.40
2019-01-25T14:23:36.498Z,26.17
2019-01-25T14:28:43.158Z,24.97
2019-01-25T14:33:55.643Z,25.30
2019-01-25T14:38:59.199Z,25.47
2019-01-25T14:44:02.543Z,26.43
2019-01-25T14:49:05.852Z,26.87
2019-01-25T14:54:10.984Z,28.37
2019-01-25T14:59:14.224Z,28.50
2019-01-25T15:04:17.516Z,27.93
2019-01-25T15:09:23.940Z,29.17
2019-01-25T15:14:27.459Z,28.77
2019-01-25T15:19:36.909Z,26.30
2019-01-25T15:24:40.208Z,26.60
2019-01-25T15:29:43.504Z,28.47
2019-01-25T15:34:55.933Z,28.50
2019-01-25T15:39:59.505Z,29.33
2019-01-25T15:45:03.767Z,29.17
2019-01-25T15:50:12.944Z,28.07
2019-01-25T15:55:17.070Z,30.90
2019-01-25T16:00:23.252Z,31.40
2019-01-25T16:05:26.885Z,31.60
2019-01-25T16:10:33.819Z,28.90
2019-01-25T16:15:40.423Z,29.40
2019-01-25T16:20:43.930Z,28.40
2019-01-25T16:25:50.218Z,27.23
2019-01-25T16:30:58.163Z,26.17
2019-01-25T16:36:01.357Z,26.03
2019-01-25T16:41:04.770Z,28.73
2019-01-25T16:46:11.147Z,23.83
2019-01-25T16:51:14.469Z,23.27
2019-01-25T16:56:17.864Z,26.47
2019-01-25T17:01:22.839Z,27.50
2019-01-25T17:06:26.143Z,28.30
2019-01-25T17:11:31.090Z,26.53
2019-01-25T17:16:34.484Z,22.60
2019-01-25T17:21:40.898Z,23.50
2019-01-25T17:26:44.303Z,28.50
2019-01-25T17:31:56.880Z,25.43
2019-01-25T17:37:00.291Z,29.50
2019-01-25T17:42:03.686Z,25.77
2019-01-25T17:47:09.202Z,24.07
2019-01-25T17:52:12.529Z,25.00
2019-01-25T17:57:15.342Z,22.93
2019-01-25T18:02:18.824Z,24.80
2019-01-25T18:07:24.485Z,26.17
2019-01-25T18:12:27.312Z,25.10
2019-01-25T18:17:30.607Z,25.10
2019-01-25T18:22:34.177Z,25.20
2019-01-25T18:27:40.006Z,23.30
2019-01-25T18:32:43.437Z,24.80
2019-01-25T18:37:49.891Z,22.90
2019-01-25T18:42:53.198Z,24.00
2019-01-25T18:47:59.802Z,22.47
2019-01-25T18:53:05.820Z,25.63
2019-01-25T18:58:09.457Z,25.27
2019-01-25T19:03:12.271Z,24.30
2019-01-25T19:08:15.479Z,25.53
2019-01-25T19:13:19.056Z,25.43
2019-01-25T19:18:22.316Z,23.87
2019-01-25T19:23:25.730Z,25.57
2019-01-25T19:28:29.044Z,25.77
2019-01-25T19:33:34.033Z,25.17
2019-01-25T19:38:36.861Z,27.27
2019-01-25T19:43:39.740Z,26.70
2019-01-25T19:48:45.201Z,23.67
2019-01-25T19:53:48.339Z,26.57
2019-01-25T19:58:52.026Z,28.30
2019-01-25T20:04:01.399Z,27.10
2019-01-25T20:09:09.645Z,30.73
2019-01-25T20:14:13.037Z,27.87
2019-01-25T20:19:33.937Z,28.10
2019-01-25T20:24:55.500Z,28.73
2019-01-25T20:29:58.989Z,28.33
2019-01-25T20:35:02.759Z,27.60
2019-01-25T20:40:08.852Z,26.37
2019-01-25T20:45:27.075Z,29.40
2019-01-25T20:50:27.198Z,29.17
2019-01-25T20:55:30.815Z,29.33
2019-01-25T21:00:36.141Z,31.40
2019-01-25T21:05:39.501Z,29.30
2019-01-25T21:10:51.762Z,32.50
2019-01-25T21:15:55.079Z,29.93
2019-01-25T21:20:58.619Z,30.90
2019-01-25T21:26:02.054Z,28.63
2019-01-25T21:31:05.373Z,28.57
2019-01-25T21:36:11.719Z,28.60
2019-01-25T21:41:15.076Z,28.53
2019-01-25T21:46:18.375Z,28.67
2019-01-25T21:51:24.763Z,31.90
2019-01-25T21:56:29.009Z,32.90
2019-01-25T22:01:32.303Z,31.27
2019-01-25T22:06:41.892Z,30.00
2019-01-25T22:11:48.162Z,32.00
2019-01-25T22:16:51.440Z,30.03
2019-01-25T22:21:57.213Z,30.33
2019-01-25T22:27:00.025Z,28.70
2019-01-25T22:32:06.469Z,29.53
2019-01-25T22:37:09.881Z,27.90
2019-01-25T22:42:15.892Z,30.67
2019-01-25T22:47:20.738Z,28.50
2019-01-25T22:52:24.314Z,30.00
2019-01-25T22:57:27.772Z,29.97
2019-01-25T23:02:32.984Z,32.33
2019-01-25T23:07:36.497Z,31.00
2019-01-25T23:12:39.937Z,29.43
2019-01-25T23:17:44.321Z,30.17
2019-01-25T23:22:47.862Z,30.43
2019-01-25T23:27:53.325Z,29.73
2019-01-25T23:32:59.645Z,31.10
2019-01-25T23:38:02.946Z,31.13
2019-01-25T23:43:09.294Z,30.47
2019-01-25T23:48:12.738Z,30.07
2019-01-25T23:53:16.220Z,28.83
2019-01-25T23:58:19.663Z,27.90
